Time;durP1;ratioP1;P1;durP2;ratioP2;P2;SDS_P1;SDS_P2;PMS_P1;PMS_P2;Temp;Humidity;BMP_temperature;BMP_pressure;BME280_temperature;BME280_humidity;BME280_pressure;Samples;Min_cycle;Max_cycle;Signal;HPM_P1;HPM_P2
2021/03/28 00:01:38;;;;;;;7.05;2.25;;;18.20;37.20;;;;;;5075132;28;20029;-62
2021/03/28 00:04:10;;;;;;;5.68;2.17;;;18.20;37.20;;;;;;5074999;28;20028;-62
2021/03/28 00:06:44;;;;;;;7.75;2.47;;;18.20;37.20;;;;;;5075256;28;20067;-62
2021/03/28 00:09:28;;;;;;;7.43;2.85;;;18.20;37.20;;;;;;5073161;28;20095;-62
2021/03/28 00:12:05;;;;;;;4.80;2.13;;;18.20;37.20;;;;;;5073994;28;20025;-62
2021/03/28 00:14:51;;;;;;;8.95;2.42;;;18.20;37.20;;;;;;5073445;28;20031;-62
2021/03/28 00:17:19;;;;;;;7.50;2.65;;;18.20;37.10;;;;;;5073870;28;20024;-63
2021/03/28 00:19:59;;;;;;;6.20;2.35;;;18.20;37.10;;;;;;5073276;28;20023;-62
2021/03/28 00:22:42;;;;;;;5.93;2.35;;;18.20;37.10;;;;;;5073063;28;20033;-62
2021/03/28 00:25:16;;;;;;;6.28;2.20;;;18.20;37.10;;;;;;5073361;28;20025;-62
2021/03/28 00:27:44;;;;;;;6.55;2.80;;;18.20;37.10;;;;;;5073561;28;20028;-62
2021/03/28 00:30:19;;;;;;;5.88;2.28;;;18.20;37.10;;;;;;5073288;28;20020;-62
2021/03/28 00:32:50;;;;;;;6.80;2.63;;;18.20;37.10;;;;;;5073477;28;20066;-62
2021/03/28 00:35:27;;;;;;;8.18;2.78;;;18.20;37.10;;;;;;5073232;28;20024;-62
2021/03/28 00:38:15;;;;;;;6.72;2.42;;;18.20;37.10;;;;;;5073243;28;20032;-61
2021/03/28 00:40:42;;;;;;;6.28;2.45;;;18.20;37.10;;;;;;5071703;28;20031;-61
2021/03/28 00:43:23;;;;;;;5.72;2.50;;;18.10;37.10;;;;;;5072905;28;20029;-61
2021/03/28 00:45:53;;;;;;;7.68;2.33;;;18.20;37.10;;;;;;5072832;28;20033;-62
2021/03/28 00:48:26;;;;;;;6.22;2.75;;;18.10;37.10;;;;;;5073291;28;20029;-61
2021/03/28 00:51:16;;;;;;;6.97;2.92;;;18.20;37.10;;;;;;5072949;28;20103;-61
2021/03/28 00:53:49;;;;;;;7.70;2.78;;;18.10;37.10;;;;;;5073272;28;20060;-61
2021/03/28 00:56:41;;;;;;;6.40;2.50;;;18.10;37.10;;;;;;5072934;28;20032;-62
2021/03/28 00:59:23;;;;;;;6.43;2.63;;;18.10;37.10;;;;;;5073329;28;20452;-61
2021/03/28 01:02:10;;;;;;;5.95;2.78;;;18.10;37.10;;;;;;5072911;28;20048;-61
2021/03/28 01:04:42;;;;;;;5.53;2.30;;;18.10;37.10;;;;;;5072754;28;20028;-62
2021/03/28 01:07:27;;;;;;;6.75;2.85;;;18.10;37.10;;;;;;5072703;28;20020;-62
2021/03/28 01:10:30;;;;;;;8.23;3.05;;;18.10;37.10;;;;;;5072878;28;20025;-62
2021/03/28 01:13:38;;;;;;;6.68;2.67;;;18.10;37.10;;;;;;5072964;28;20028;-62
2021/03/28 01:16:47;;;;;;;7.80;2.80;;;18.10;37.10;;;;;;5072917;28;20021;-62
2021/03/28 01:19:28;;;;;;;7.35;2.67;;;18.10;37.10;;;;;;5044117;28;20040;-61
2021/03/28 01:22:16;;;;;;;6.70;2.70;;;18.10;37.00;;;;;;5076393;28;20055;-61
2021/03/28 01:24:51;;;;;;;7.07;3.22;;;18.10;37.10;;;;;;5076513;28;20035;-62
2021/03/28 01:27:29;;;;;;;;;;;18.10;37.00;;;;;;5077153;28;20029;-62
2021/03/28 01:30:17;;;;;;;7.85;2.90;;;18.10;37.10;;;;;;5076277;28;19910;-61
2021/03/28 01:32:58;;;;;;;7.40;3.38;;;18.10;37.10;;;;;;5076280;28;20464;-62
2021/03/28 01:35:33;;;;;;;8.35;3.10;;;18.10;37.10;;;;;;5076117;28;20032;-62
2021/03/28 01:38:16;;;;;;;10.25;3.47;;;18.10;37.10;;;;;;5076216;28;20515;-61
2021/03/28 01:40:50;;;;;;;7.50;2.92;;;18.10;37.10;;;;;;5076402;28;20033;-62
2021/03/28 01:43:47;;;;;;;8.70;2.88;;;18.10;37.10;;;;;;5076271;28;20384;-62
2021/03/28 01:46:40;;;;;;;7.35;3.17;;;18.10;37.10;;;;;;5076077;28;20016;-62
2021/03/28 01:49:34;;;;;;;7.38;3.20;;;18.10;37.10;;;;;;5075990;28;20387;-61
2021/03/28 01:52:25;;;;;;;8.13;3.20;;;18.10;37.10;;;;;;5076029;28;20451;-62
2021/03/28 01:55:02;;;;;;;7.60;3.00;;;18.10;37.10;;;;;;5074391;28;20047;-62
2021/03/28 01:57:37;;;;;;;7.85;3.50;;;18.10;37.10;;;;;;5076096;28;20024;-62
2021/03/28 02:00:31;;;;;;;8.07;3.22;;;18.10;37.10;;;;;;5075911;28;20033;-62
2021/03/28 02:03:15;;;;;;;8.67;3.33;;;18.10;37.10;;;;;;5075966;28;20032;-62
2021/03/28 02:06:01;;;;;;;7.28;3.13;;;18.10;37.10;;;;;;5074572;28;20399;-62
2021/03/28 02:08:50;;;;;;;7.15;3.20;;;18.10;37.10;;;;;;5075962;28;20024;-61
2021/03/28 02:11:53;;;;;;;6.70;2.97;;;18.10;37.10;;;;;;5075720;28;20364;-62
2021/03/28 02:14:46;;;;;;;7.38;3.03;;;18.10;37.10;;;;;;5075575;28;20498;-62
2021/03/28 02:17:45;;;;;;;7.97;3.10;;;18.10;37.10;;;;;;5075567;28;20035;-63
2021/03/28 02:20:22;;;;;;;7.18;3.20;;;18.10;37.10;;;;;;5075580;28;20051;-62
2021/03/28 02:23:27;;;;;;;7.57;3.53;;;18.10;37.10;;;;;;5075584;28;20036;-62
2021/03/28 02:26:17;;;;;;;8.77;3.08;;;18.00;37.10;;;;;;5075278;28;20024;-62
2021/03/28 02:29:05;;;;;;;8.80;3.15;;;18.00;37.10;;;;;;5053952;28;20064;-62
2021/03/28 02:31:52;;;;;;;7.95;3.60;;;18.00;37.10;;;;;;5074818;28;20044;-62
2021/03/28 02:34:35;;;;;;;9.93;4.18;;;18.10;37.10;;;;;;5075278;28;20017;-63
2021/03/28 02:37:17;;;;;;;8.48;3.65;;;18.10;37.10;;;;;;5075153;28;20039;-62
2021/03/28 02:40:11;;;;;;;7.88;3.28;;;18.10;37.10;;;;;;5075296;28;20465;-62
2021/03/28 02:43:15;;;;;;;7.00;3.35;;;18.10;37.10;;;;;;5048986;28;20066;-61
2021/03/28 02:45:46;;;;;;;8.90;3.63;;;18.10;37.10;;;;;;5075144;28;20396;-62
2021/03/28 02:48:17;;;;;;;8.75;3.60;;;18.10;37.10;;;;;;5074938;28;20038;-63
2021/03/28 02:51:19;;;;;;;8.35;3.85;;;18.00;37.10;;;;;;5074764;28;20028;-61
2021/03/28 02:54:16;;;;;;;8.10;3.75;;;18.00;37.10;;;;;;5075114;28;20476;-63
2021/03/28 02:57:19;;;;;;;7.45;3.20;;;18.00;37.10;;;;;;5074795;28;20040;-62
2021/03/28 03:00:02;;;;;;;9.20;3.30;;;18.00;37.20;;;;;;5074582;28;20029;-63
2021/03/28 03:02:57;;;;;;;8.25;3.40;;;18.00;37.10;;;;;;5074415;28;20111;-63
2021/03/28 03:06:00;;;;;;;7.22;3.20;;;18.00;37.20;;;;;;5075055;28;20024;-62
2021/03/28 03:09:07;;;;;;;7.55;3.30;;;18.00;37.20;;;;;;5074643;28;20488;-62
2021/03/28 03:11:45;;;;;;;7.72;3.67;;;18.00;37.20;;;;;;5074700;28;20060;-62
2021/03/28 03:14:30;;;;;;;10.23;3.63;;;18.00;37.10;;;;;;5074346;28;20035;-62
2021/03/28 03:17:15;;;;;;;8.35;4.10;;;18.00;37.10;;;;;;5074698;28;20027;-62
2021/03/28 03:20:26;;;;;;;8.32;3.50;;;18.00;37.20;;;;;;5074024;28;20060;-63
2021/03/28 03:23:15;;;;;;;9.48;3.95;;;18.00;37.20;;;;;;5074872;28;20392;-62
2021/03/28 03:26:21;;;;;;;9.88;3.70;;;18.00;37.20;;;;;;5079463;28;20021;-63
2021/03/28 03:29:34;;;;;;;7.32;3.45;;;18.00;37.20;;;;;;5074726;28;20028;-64
2021/03/28 03:32:27;;;;;;;7.25;3.75;;;18.00;37.20;;;;;;5074535;28;20031;-61
2021/03/28 03:35:04;;;;;;;7.80;3.20;;;18.00;37.20;;;;;;5073794;28;20150;-62
2021/03/28 03:37:50;;;;;;;9.00;3.80;;;18.00;37.20;;;;;;5073842;28;20066;-62
2021/03/28 03:40:37;;;;;;;7.88;3.17;;;18.00;37.20;;;;;;5074021;28;20017;-64
2021/03/28 03:43:40;;;;;;;7.65;3.72;;;18.00;37.20;;;;;;5073383;28;20409;-62
2021/03/28 03:46:07;;;;;;;8.38;3.97;;;18.00;37.20;;;;;;5073519;28;20031;-62
2021/03/28 03:48:51;;;;;;;9.80;4.05;;;18.00;37.20;;;;;;5073817;28;20111;-62
2021/03/28 03:51:37;;;;;;;8.30;3.60;;;18.00;37.20;;;;;;5073913;28;20064;-62
2021/03/28 03:54:11;;;;;;;7.97;3.25;;;18.00;37.20;;;;;;5073804;28;20425;-62
2021/03/28 03:57:05;;;;;;;8.50;4.10;;;18.00;37.20;;;;;;5073854;28;20082;-62
2021/03/28 04:00:02;;;;;;;7.30;3.75;;;18.00;37.20;;;;;;5073520;28;20352;-61
2021/03/28 04:02:52;;;;;;;10.20;4.30;;;18.00;37.20;;;;;;5073788;28;20264;-62
2021/03/28 04:05:45;;;;;;;8.13;3.72;;;18.00;37.20;;;;;;5073596;28;20357;-62
2021/03/28 04:08:53;;;;;;;8.88;4.03;;;18.00;37.20;;;;;;5073579;28;20080;-61
2021/03/28 04:11:30;;;;;;;7.95;3.53;;;18.00;37.20;;;;;;5073409;28;20024;-62
2021/03/28 04:14:16;;;;;;;7.82;3.83;;;18.00;37.20;;;;;;5073278;28;20028;-62
2021/03/28 04:17:39;;;;;;;7.60;3.75;;;18.00;37.20;;;;;;5072601;28;20047;-62
2021/03/28 04:20:11;;;;;;;7.60;3.58;;;18.00;37.20;;;;;;5011517;28;20474;-62
2021/03/28 04:23:13;;;;;;;9.05;3.78;;;18.00;37.20;;;;;;5011742;28;20049;-61
2021/03/28 04:25:57;;;;;;;7.85;3.88;;;18.00;37.20;;;;;;5065934;28;20036;-61
2021/03/28 04:28:50;;;;;;;9.93;3.92;;;18.00;37.20;;;;;;5073648;28;20100;-62
2021/03/28 04:31:30;;;;;;;8.45;3.70;;;18.10;37.20;;;;;;5073539;28;20055;-61
2021/03/28 04:34:27;;;;;;;8.07;3.65;;;18.10;37.10;;;;;;5073723;28;20024;-62
2021/03/28 04:37:27;;;;;;;8.65;3.95;;;18.10;37.20;;;;;;5019684;28;20386;-62
2021/03/28 04:40:14;;;;;;;9.25;4.22;;;18.10;37.20;;;;;;5073133;28;20020;-62
2021/03/28 04:42:52;;;;;;;7.45;3.55;;;18.10;37.20;;;;;;5073034;28;20044;-61
2021/03/28 04:45:42;;;;;;;9.48;3.78;;;18.10;37.10;;;;;;5073699;28;20028;-62
2021/03/28 04:48:17;;;;;;;8.13;3.67;;;18.10;37.10;;;;;;5077427;28;20024;-62
2021/03/28 04:51:48;;;;;;;8.10;3.40;;;18.10;37.20;;;;;;5075837;28;20027;-62
2021/03/28 04:54:42;;;;;;;8.10;3.80;;;18.10;37.20;;;;;;5014653;28;20053;-61
2021/03/28 04:57:21;;;;;;;7.47;3.45;;;18.10;37.20;;;;;;5077521;28;20025;-61
2021/03/28 05:00:04;;;;;;;7.70;3.42;;;18.10;37.20;;;;;;5080716;28;20357;-61
2021/03/28 05:02:47;;;;;;;8.77;3.83;;;18.10;37.20;;;;;;5078720;28;20028;-62
2021/03/28 05:05:25;;;;;;;7.85;3.45;;;18.10;37.20;;;;;;5077691;28;20052;-61
2021/03/28 05:08:21;;;;;;;10.27;3.65;;;18.10;37.20;;;;;;5076987;28;20035;-62
2021/03/28 05:10:53;;;;;;;8.70;3.63;;;18.10;37.20;;;;;;5077236;28;20025;-61
2021/03/28 05:13:50;;;;;;;7.25;3.30;;;18.20;37.20;;;;;;5077296;28;20024;-62
2021/03/28 05:16:52;;;;;;;8.18;3.88;;;18.10;37.20;;;;;;5076767;28;20059;-62
2021/03/28 05:19:50;;;;;;;10.25;3.65;;;18.20;37.20;;;;;;5076732;28;20376;-62
2021/03/28 05:22:53;;;;;;;8.95;3.47;;;18.10;37.20;;;;;;5051961;28;20235;-62
2021/03/28 05:25:49;;;;;;;8.13;3.80;;;18.20;37.20;;;;;;5076702;28;20137;-62
2021/03/28 05:28:54;;;;;;;7.88;3.35;;;18.20;37.20;;;;;;5075191;28;20027;-62
2021/03/28 05:31:41;;;;;;;9.95;3.58;;;18.20;37.20;;;;;;5076425;28;20027;-61
2021/03/28 05:34:44;;;;;;;6.85;2.88;;;18.20;37.20;;;;;;5076259;28;20039;-62
2021/03/28 05:37:55;;;;;;;6.78;3.35;;;18.20;37.20;;;;;;5076025;28;20020;-61
2021/03/28 05:40:20;;;;;;;7.75;3.50;;;18.20;37.20;;;;;;5076299;28;20017;-61
2021/03/28 05:43:31;;;;;;;8.07;3.25;;;18.20;37.20;;;;;;5076114;28;20541;-62
2021/03/28 05:46:11;;;;;;;8.00;3.20;;;18.20;37.20;;;;;;5076431;28;20043;-63
2021/03/28 05:48:51;;;;;;;6.78;3.10;;;18.20;37.20;;;;;;5076064;28;20047;-62
2021/03/28 05:51:41;;;;;;;7.50;2.85;;;18.20;37.20;;;;;;5076211;28;20016;-62
2021/03/28 05:54:13;;;;;;;6.72;3.20;;;18.20;37.20;;;;;;5076217;28;20078;-63
2021/03/28 05:57:15;;;;;;;8.77;3.65;;;18.20;37.20;;;;;;5075658;28;20106;-63
2021/03/28 06:00:02;;;;;;;7.72;3.53;;;18.20;37.20;;;;;;5075983;28;20384;-61
2021/03/28 06:02:55;;;;;;;7.43;3.20;;;18.20;37.20;;;;;;5075788;28;20039;-62
2021/03/28 06:05:42;;;;;;;7.38;3.08;;;18.20;37.20;;;;;;5075042;28;20025;-62
2021/03/28 06:08:17;;;;;;;6.28;2.90;;;18.20;37.20;;;;;;5076048;28;20365;-61
2021/03/28 06:11:24;;;;;;;8.77;3.47;;;18.20;37.20;;;;;;5075712;28;20024;-61
2021/03/28 06:14:31;;;;;;;7.03;2.72;;;18.20;37.20;;;;;;5075855;28;20073;-62
2021/03/28 06:17:08;;;;;;;8.32;3.50;;;18.20;37.20;;;;;;5075558;28;20016;-61
2021/03/28 06:20:18;;;;;;;8.13;3.50;;;18.30;37.20;;;;;;5075452;28;20029;-62
2021/03/28 06:23:11;;;;;;;7.80;3.40;;;18.30;37.20;;;;;;5075195;28;20040;-61
2021/03/28 06:25:51;;;;;;;7.53;2.95;;;18.30;37.20;;;;;;5075647;28;20051;-61
2021/03/28 06:28:46;;;;;;;6.95;3.00;;;18.30;37.20;;;;;;5075595;28;20044;-61
2021/03/28 06:31:20;;;;;;;7.60;3.17;;;18.30;37.20;;;;;;5075647;28;20120;-62
2021/03/28 06:33:45;;;;;;;6.38;3.00;;;18.30;37.20;;;;;;5075174;28;20017;-62
2021/03/28 06:36:29;;;;;;;6.30;2.92;;;18.30;37.20;;;;;;5075295;28;20035;-61
2021/03/28 06:39:13;;;;;;;7.47;3.03;;;18.30;37.20;;;;;;5075710;28;20028;-62
2021/03/28 06:42:13;;;;;;;7.55;3.53;;;18.30;37.20;;;;;;5075460;28;20361;-62
2021/03/28 06:45:16;;;;;;;7.65;2.75;;;18.30;37.20;;;;;;5074945;28;20089;-62
2021/03/28 06:47:53;;;;;;;6.00;2.60;;;18.30;37.20;;;;;;5074641;28;20093;-61
2021/03/28 06:50:50;;;;;;;6.50;2.85;;;18.30;37.20;;;;;;5075126;28;20021;-63
2021/03/28 06:53:47;;;;;;;6.63;3.00;;;18.30;37.20;;;;;;5074955;28;20028;-62
2021/03/28 06:56:31;;;;;;;7.68;3.30;;;18.30;37.20;;;;;;5074694;28;20149;-63
2021/03/28 06:59:11;;;;;;;6.88;2.53;;;18.30;37.20;;;;;;5075353;28;20032;-62
2021/03/28 07:01:53;;;;;;;9.02;3.00;;;18.30;37.20;;;;;;5074568;28;20032;-62
2021/03/28 07:04:56;;;;;;;7.72;2.97;;;18.30;37.20;;;;;;5074369;28;20151;-62
2021/03/28 07:07:55;;;;;;;5.47;2.50;;;18.40;37.30;;;;;;5074602;28;20072;-61
2021/03/28 07:10:50;;;;;;;6.13;2.80;;;18.40;37.20;;;;;;5074866;28;20443;-62
2021/03/28 07:13:39;;;;;;;5.78;2.88;;;18.30;37.20;;;;;;5074791;28;20046;-61
2021/03/28 07:16:37;;;;;;;7.25;3.00;;;18.40;37.20;;;;;;5074451;28;20029;-62
2021/03/28 07:19:25;;;;;;;6.72;2.63;;;18.30;37.20;;;;;;5074234;28;20032;-62
2021/03/28 07:21:50;;;;;;;6.38;2.30;;;18.30;37.20;;;;;;5074174;28;20055;-62
2021/03/28 07:24:44;;;;;;;7.32;2.88;;;18.40;37.30;;;;;;5074785;28;20028;-62
2021/03/28 07:27:30;;;;;;;6.15;2.97;;;18.40;37.30;;;;;;5058391;28;20449;-62
2021/03/28 07:30:17;;;;;;;6.68;2.90;;;18.40;37.20;;;;;;5074663;28;20387;-61
2021/03/28 07:33:07;;;;;;;5.35;2.58;;;18.40;37.20;;;;;;5074232;28;20117;-62
2021/03/28 07:35:52;;;;;;;5.95;2.67;;;18.40;37.20;;;;;;5072928;28;20104;-62
2021/03/28 07:38:35;;;;;;;5.97;2.58;;;18.40;37.20;;;;;;5073841;28;20027;-62
2021/03/28 07:41:33;;;;;;;7.45;2.70;;;18.40;37.20;;;;;;5073922;28;20021;-63
2021/03/28 07:44:35;;;;;;;6.03;2.35;;;18.40;37.20;;;;;;5072478;28;20389;-60
2021/03/28 07:47:04;;;;;;;6.45;2.53;;;18.40;37.20;;;;;;5074063;28;20027;-63
2021/03/28 07:49:38;;;;;;;6.82;2.47;;;18.40;37.20;;;;;;5073817;28;20369;-62
2021/03/28 07:52:22;;;;;;;5.88;2.50;;;18.40;37.20;;;;;;5073961;28;20028;-62
2021/03/28 07:55:12;;;;;;;5.28;2.15;;;18.40;37.20;;;;;;5073726;28;20024;-62
2021/03/28 07:58:05;;;;;;;5.95;2.50;;;18.50;37.20;;;;;;5074033;28;20025;-63
2021/03/28 08:00:37;;;;;;;6.30;2.88;;;18.50;37.20;;;;;;5073658;28;20031;-61
2021/03/28 08:03:40;;;;;;;5.97;2.17;;;18.50;37.20;;;;;;5073761;28;20048;-62
2021/03/28 08:06:44;;;;;;;6.70;2.67;;;18.50;37.20;;;;;;5073455;28;20282;-61
2021/03/28 08:09:41;;;;;;;5.65;2.65;;;18.50;37.20;;;;;;5042114;28;20503;-62
2021/03/28 08:12:44;;;;;;;5.50;2.35;;;18.50;37.20;;;;;;5073361;28;20054;-63
2021/03/28 08:15:27;;;;;;;7.05;2.75;;;18.50;37.20;;;;;;5073246;28;20063;-62
2021/03/28 08:18:11;;;;;;;5.78;2.65;;;18.50;37.20;;;;;;5073485;28;20468;-62
2021/03/28 08:21:00;;;;;;;7.40;2.75;;;18.50;37.20;;;;;;5073226;28;20510;-63
2021/03/28 08:23:44;;;;;;;6.57;2.55;;;18.50;37.20;;;;;;5073386;28;20029;-61
2021/03/28 08:26:31;;;;;;;5.68;2.63;;;18.50;37.20;;;;;;5073619;28;20024;-62
2021/03/28 08:29:03;;;;;;;6.55;2.70;;;18.50;37.20;;;;;;5072620;28;20032;-62
2021/03/28 08:31:56;;;;;;;8.23;2.90;;;18.50;37.20;;;;;;5073231;28;20110;-62
2021/03/28 08:34:37;;;;;;;5.57;2.53;;;18.50;37.20;;;;;;5065614;28;20036;-61
2021/03/28 08:37:24;;;;;;;4.70;2.20;;;18.50;37.20;;;;;;5073282;28;20071;-61
2021/03/28 08:40:14;;;;;;;7.07;2.60;;;18.50;37.20;;;;;;5073245;28;20044;-61
2021/03/28 08:42:50;;;;;;;5.80;2.38;;;18.50;37.20;;;;;;5073137;28;20487;-62
2021/03/28 08:45:43;;;;;;;6.78;2.60;;;18.60;37.20;;;;;;5073211;28;20503;-61
2021/03/28 08:48:43;;;;;;;6.13;2.42;;;18.50;37.20;;;;;;5073137;28;20460;-62
2021/03/28 08:51:31;;;;;;;4.57;2.10;;;18.60;37.20;;;;;;5062128;28;20090;-61
2021/03/28 08:54:22;;;;;;;6.20;2.17;;;18.60;37.20;;;;;;5073145;28;20414;-62
2021/03/28 08:57:06;;;;;;;5.30;2.13;;;18.60;37.20;;;;;;5073060;28;20108;-62
2021/03/28 08:59:46;;;;;;;4.93;2.45;;;18.60;37.20;;;;;;5072972;28;20079;-61
2021/03/28 09:02:19;;;;;;;7.45;2.40;;;18.60;37.20;;;;;;5072891;28;20111;-61
2021/03/28 09:04:53;;;;;;;5.80;2.60;;;18.60;37.20;;;;;;5072923;28;20025;-61
2021/03/28 09:07:33;;;;;;;6.00;2.53;;;18.60;37.20;;;;;;5072651;28;20103;-62
2021/03/28 09:10:24;;;;;;;6.97;2.40;;;18.60;37.20;;;;;;5072787;28;20024;-61
2021/03/28 09:13:13;;;;;;;5.45;2.45;;;18.70;37.20;;;;;;5073063;28;20044;-63
2021/03/28 09:16:16;;;;;;;5.65;2.30;;;18.70;37.20;;;;;;5072637;28;20020;-63
2021/03/28 09:19:13;;;;;;;6.10;2.13;;;18.60;37.20;;;;;;5071260;28;20421;-62
2021/03/28 09:21:52;;;;;;;4.05;1.80;;;18.70;37.20;;;;;;5072395;28;20052;-62
2021/03/28 09:24:21;;;;;;;5.68;1.92;;;18.70;37.20;;;;;;5072589;28;20029;-62
2021/03/28 09:26:51;;;;;;;4.25;1.60;;;18.70;37.20;;;;;;5072302;28;20491;-62
2021/03/28 09:29:34;;;;;;;5.40;2.20;;;18.70;37.20;;;;;;5072497;28;20029;-62
2021/03/28 09:32:20;;;;;;;5.60;2.38;;;18.70;37.30;;;;;;5072957;28;20025;-63
2021/03/28 09:35:02;;;;;;;5.68;2.33;;;18.70;37.20;;;;;;5072966;28;20127;-62
2021/03/28 09:37:57;;;;;;;5.78;2.20;;;18.70;37.30;;;;;;5072595;28;20021;-63
2021/03/28 09:40:30;;;;;;;5.90;2.33;;;18.70;37.20;;;;;;5072318;28;20016;-63
2021/03/28 09:42:58;;;;;;;5.70;2.08;;;18.70;37.30;;;;;;5075652;28;20108;-63
2021/03/28 09:45:48;;;;;;;4.72;1.88;;;18.70;37.30;;;;;;5075809;28;20020;-63
2021/03/28 09:48:40;;;;;;;4.30;1.70;;;18.70;37.30;;;;;;5074477;28;20032;-63
2021/03/28 09:51:47;;;;;;;3.75;1.70;;;18.70;37.30;;;;;;5075924;28;20472;-63
2021/03/28 09:54:21;;;;;;;6.15;1.80;;;18.70;37.30;;;;;;5075662;28;20099;-63
2021/03/28 09:57:02;;;;;;;5.50;2.25;;;18.80;37.20;;;;;;5075887;28;20020;-63
2021/03/28 10:00:03;;;;;;;5.85;2.30;;;18.80;37.20;;;;;;5075810;28;20020;-63
2021/03/28 10:02:39;;;;;;;4.43;1.50;;;18.80;37.20;;;;;;5075683;28;20117;-63
2021/03/28 10:05:23;;;;;;;5.32;2.03;;;18.80;37.30;;;;;;5075411;28;20020;-63
2021/03/28 10:08:09;;;;;;;6.18;2.33;;;18.80;37.30;;;;;;5075478;28;20086;-63
2021/03/28 10:11:00;;;;;;;5.95;1.85;;;18.80;37.30;;;;;;5074384;28;20413;-63
2021/03/28 10:13:43;;;;;;;3.25;1.58;;;18.80;37.20;;;;;;5075189;28;20041;-63
2021/03/28 10:16:12;;;;;;;4.35;1.83;;;18.80;37.20;;;;;;5075598;28;20427;-63
2021/03/28 10:19:01;;;;;;;4.95;2.05;;;18.90;37.20;;;;;;5075473;28;20030;-62
2021/03/28 10:21:45;;;;;;;7.57;2.20;;;18.90;37.20;;;;;;5075059;28;20050;-63
2021/03/28 10:24:39;;;;;;;5.22;2.05;;;18.90;37.20;;;;;;5075565;28;20029;-61
2021/03/28 10:27:32;;;;;;;5.38;1.98;;;18.80;37.20;;;;;;5075692;28;20048;-63
2021/03/28 10:30:19;;;;;;;4.55;1.80;;;18.90;37.20;;;;;;5075181;28;20032;-62
2021/03/28 10:32:53;;;;;;;3.47;1.50;;;18.90;37.20;;;;;;5075155;28;20487;-63
2021/03/28 10:35:23;;;;;;;;;;;18.90;37.20;;;;;;5075626;28;20463;-63
2021/03/28 10:38:22;;;;;;;5.43;1.98;;;18.90;37.20;;;;;;5074711;28;19958;-63
2021/03/28 10:41:16;;;;;;;5.53;1.48;;;18.90;37.20;;;;;;5075210;28;20028;-62
2021/03/28 10:44:06;;;;;;;3.90;1.75;;;19.00;37.10;;;;;;5075024;28;20039;-62
2021/03/28 10:46:32;;;;;;;5.22;1.85;;;19.00;37.10;;;;;;5075004;28;20096;-63
2021/03/28 10:49:15;;;;;;;5.60;1.90;;;19.00;37.00;;;;;;5075001;28;20051;-62
2021/03/28 10:51:50;;;;;;;3.85;1.63;;;19.00;37.00;;;;;;5074477;28;20036;-62
2021/03/28 10:54:30;;;;;;;4.63;1.92;;;19.00;37.00;;;;;;5074933;28;20073;-62
2021/03/28 10:57:33;;;;;;;4.32;1.60;;;19.00;37.00;;;;;;5074806;28;20032;-62
2021/03/28 11:00:24;;;;;;;4.85;1.80;;;19.00;37.00;;;;;;5074726;28;20070;-63
2021/03/28 11:03:27;;;;;;;3.88;1.75;;;19.00;37.00;;;;;;5074556;28;20083;-63
2021/03/28 11:06:31;;;;;;;4.32;1.73;;;19.10;37.00;;;;;;5074535;28;20025;-62
2021/03/28 11:09:10;;;;;;;5.20;1.90;;;19.20;36.90;;;;;;5074471;28;20460;-62
2021/03/28 11:12:07;;;;;;;4.68;1.80;;;19.10;36.80;;;;;;5074514;28;20027;-62
2021/03/28 11:15:11;;;;;;;5.18;2.10;;;19.20;36.80;;;;;;5074608;28;20568;-63
2021/03/28 11:17:42;;;;;;;5.65;1.98;;;19.20;36.70;;;;;;5074304;28;20047;-62
2021/03/28 11:20:41;;;;;;;5.20;1.65;;;19.20;36.70;;;;;;5074109;28;20068;-63
2021/03/28 11:23:10;;;;;;;4.18;1.40;;;19.30;36.70;;;;;;5074279;28;20044;-62
2021/03/28 11:25:55;;;;;;;3.35;1.42;;;19.30;36.70;;;;;;5074176;28;20063;-62
2021/03/28 11:28:39;;;;;;;4.60;1.80;;;19.30;36.60;;;;;;5074015;28;20020;-63
2021/03/28 11:31:28;;;;;;;4.43;1.80;;;19.30;36.60;;;;;;5074222;28;20018;-63
2021/03/28 11:34:28;;;;;;;4.10;1.58;;;19.30;36.50;;;;;;5074288;28;20055;-63
2021/03/28 11:37:03;;;;;;;5.43;1.58;;;19.30;36.60;;;;;;5073955;28;20123;-62
2021/03/28 11:39:32;;;;;;;5.80;1.80;;;19.40;36.60;;;;;;5073794;28;20028;-63
2021/03/28 11:42:10;;;;;;;4.00;1.60;;;19.40;36.60;;;;;;5073506;28;20476;-63
2021/03/28 11:44:55;;;;;;;5.65;1.98;;;19.30;36.60;;;;;;5073927;28;20039;-62
2021/03/28 11:47:21;;;;;;;3.40;1.20;;;19.30;36.60;;;;;;5073860;28;20456;-63
2021/03/28 11:50:07;;;;;;;3.67;1.50;;;19.30;36.70;;;;;;5073565;28;20024;-63
2021/03/28 11:53:00;;;;;;;3.15;1.20;;;19.30;36.70;;;;;;5073828;28;20098;-62
2021/03/28 11:55:33;;;;;;;2.95;1.10;;;19.30;36.80;;;;;;5073640;28;20099;-63
2021/03/28 11:58:26;;;;;;;3.40;1.27;;;19.30;36.70;;;;;;5074253;28;20109;-62
2021/03/28 12:00:57;;;;;;;4.43;1.85;;;19.20;36.80;;;;;;5073610;28;20073;-62
2021/03/28 12:03:31;;;;;;;2.72;1.10;;;19.20;36.70;;;;;;5073150;28;20076;-62
2021/03/28 12:06:17;;;;;;;5.93;1.90;;;19.20;36.70;;;;;;5073463;28;20056;-63
2021/03/28 12:08:45;;;;;;;4.68;1.73;;;19.20;36.80;;;;;;5042283;28;20032;-62
2021/03/28 12:11:31;;;;;;;4.80;1.70;;;19.30;36.70;;;;;;5073576;28;20056;-63
2021/03/28 12:14:14;;;;;;;5.43;1.88;;;19.20;36.80;;;;;;5073593;28;20025;-62
2021/03/28 12:17:08;;;;;;;3.95;1.70;;;19.20;36.70;;;;;;5073620;28;20032;-62
2021/03/28 12:19:43;;;;;;;6.95;1.52;;;19.30;36.80;;;;;;5073179;28;20028;-62
2021/03/28 12:22:30;;;;;;;2.83;1.25;;;19.30;36.70;;;;;;5073647;28;20032;-62
2021/03/28 12:25:22;;;;;;;3.30;1.35;;;19.40;36.70;;;;;;5073167;28;20045;-63
2021/03/28 12:27:56;;;;;;;3.40;1.30;;;19.30;36.70;;;;;;5073383;28;20443;-65
2021/03/28 12:30:28;;;;;;;4.28;1.55;;;19.30;36.60;;;;;;5073556;28;20070;-62
2021/03/28 12:33:19;;;;;;;3.72;1.65;;;19.30;36.70;;;;;;5073281;28;20059;-62
2021/03/28 12:36:07;;;;;;;4.38;1.50;;;19.30;36.70;;;;;;5073137;28;20031;-62
2021/03/28 12:38:40;;;;;;;4.15;1.48;;;19.30;36.70;;;;;;5073306;28;20024;-62
2021/03/28 12:41:18;;;;;;;5.15;1.40;;;19.30;36.70;;;;;;5073588;28;20031;-62
2021/03/28 12:43:58;;;;;;;4.57;1.73;;;19.30;36.70;;;;;;5073114;28;20035;-62
2021/03/28 12:46:26;;;;;;;4.07;1.35;;;19.30;36.70;;;;;;5073342;28;20020;-62
2021/03/28 12:49:27;;;;;;;3.67;1.58;;;19.30;36.70;;;;;;5073361;28;20031;-62
2021/03/28 12:52:37;;;;;;;3.53;1.40;;;19.30;36.80;;;;;;5049547;28;20037;-62
2021/03/28 12:55:10;;;;;;;5.05;1.80;;;19.20;36.90;;;;;;5066057;28;20145;-63
2021/03/28 12:57:39;;;;;;;4.30;1.50;;;19.20;36.90;;;;;;5073412;28;20071;-63
2021/03/28 13:00:26;;;;;;;4.10;1.65;;;19.10;36.90;;;;;;5072781;28;20021;-63
2021/03/28 13:02:53;;;;;;;5.07;1.67;;;19.10;36.90;;;;;;5072692;28;20036;-64
2021/03/28 13:05:22;;;;;;;5.15;1.88;;;19.10;37.00;;;;;;5072950;28;20031;-63
2021/03/28 13:08:13;;;;;;;3.90;1.33;;;19.10;37.00;;;;;;5073008;28;20024;-62
2021/03/28 13:10:40;;;;;;;7.07;1.48;;;19.10;37.00;;;;;;5065329;28;20388;-63
2021/03/28 13:13:15;;;;;;;3.83;1.40;;;19.10;37.00;;;;;;5072480;28;20431;-62
2021/03/28 13:15:45;;;;;;;4.60;1.42;;;19.10;37.00;;;;;;5074657;28;20380;-62
2021/03/28 13:18:43;;;;;;;4.35;1.77;;;19.10;37.00;;;;;;5077028;28;20025;-62
2021/03/28 13:21:27;;;;;;;3.00;1.38;;;19.10;37.00;;;;;;5076573;28;20101;-62
2021/03/28 13:24:12;;;;;;;4.43;1.52;;;19.10;37.00;;;;;;5076805;28;20049;-62
2021/03/28 13:27:13;;;;;;;3.50;1.33;;;19.10;37.10;;;;;;5076899;28;20032;-62
2021/03/28 13:29:50;;;;;;;4.50;1.65;;;19.10;37.10;;;;;;5075319;28;20028;-62
2021/03/28 13:32:36;;;;;;;3.63;1.42;;;19.00;37.10;;;;;;5076500;28;20017;-63
2021/03/28 13:35:24;;;;;;;5.40;1.90;;;19.10;37.10;;;;;;5076432;28;20103;-62
2021/03/28 13:37:53;;;;;;;4.55;1.55;;;19.00;37.10;;;;;;5076118;28;20029;-61
2021/03/28 13:40:41;;;;;;;4.30;1.48;;;19.00;37.10;;;;;;5076033;28;20145;-62
2021/03/28 13:43:20;;;;;;;3.97;1.35;;;19.00;37.20;;;;;;5068561;28;20079;-62
2021/03/28 13:45:47;;;;;;;6.00;1.63;;;19.00;37.20;;;;;;5076386;28;20077;-61
2021/03/28 13:48:12;;;;;;;4.90;1.50;;;19.00;37.20;;;;;;5075851;28;20491;-62
2021/03/28 13:50:54;;;;;;;3.95;1.45;;;19.00;37.20;;;;;;5076081;28;20021;-62
2021/03/28 13:53:38;;;;;;;3.80;1.50;;;19.00;37.20;;;;;;5075915;28;20027;-62
2021/03/28 13:56:09;;;;;;;3.63;1.42;;;19.00;37.20;;;;;;5075655;28;20170;-62
2021/03/28 13:58:38;;;;;;;3.28;1.45;;;19.00;37.20;;;;;;5075835;28;20104;-63
2021/03/28 14:01:22;;;;;;;3.78;1.17;;;19.00;37.20;;;;;;5075899;28;20112;-62
2021/03/28 14:03:52;;;;;;;3.60;1.27;;;19.00;37.20;;;;;;5075756;28;20120;-62
2021/03/28 14:06:31;;;;;;;2.50;1.10;;;19.00;37.20;;;;;;5075914;28;20444;-62
2021/03/28 14:09:03;;;;;;;3.72;1.20;;;19.00;37.20;;;;;;5075510;28;20032;-62
2021/03/28 14:11:50;;;;;;;4.53;1.40;;;19.00;37.20;;;;;;5075736;28;20028;-63
2021/03/28 14:14:38;;;;;;;3.58;1.45;;;19.00;37.20;;;;;;5075090;28;20064;-63
2021/03/28 14:17:33;;;;;;;4.65;1.58;;;19.00;37.20;;;;;;5075595;28;20024;-62
2021/03/28 14:20:22;;;;;;;4.53;1.42;;;19.00;37.20;;;;;;5062354;28;20459;-62
2021/03/28 14:22:58;;;;;;;3.55;1.25;;;19.00;37.20;;;;;;5075457;28;20036;-62
2021/03/28 14:25:51;;;;;;;4.07;1.52;;;19.00;37.30;;;;;;5075686;28;20384;-62